NVA1001 SAME-SAZM
Flight info
| Callsign | NVA1001 |
|---|---|
| Flight time | N/A |
| Altitude | 39000 |
| Route | DOSLO1C DOSLO DCT ANLIS UT688 DIL DCT ESURO ESURO1U |
| Aircraft | A319/M-SDE3FGHIRWY/LB1 |
Departure
| Time | 2026-04-22 18:47 |
|---|---|
| Airport | Governor Francisco Gabrielli International Airport (SAME) |
Arrival
| Time | N/A |
|---|---|
| Airport | Ástor Piazzola International Airport (SAZM) |
| Time | Latitude | Longitude | Altitude | Speed | Heading |
|---|---|---|---|---|---|
| 2026-04-22 18:37 | -32.82842 | -68.79642 | 2338 ft | 0 kts | 90° |
| 2026-04-22 18:40 | -32.82842 | -68.79647 | 2338 ft | 2 kts | 91° |
| 2026-04-22 18:40 | -32.82841 | -68.79665 | 2338 ft | 2 kts | 91° |
| 2026-04-22 18:41 | -32.82841 | -68.79680 | 2338 ft | 0 kts | 92° |
| 2026-04-22 18:41 | -32.82838 | -68.79696 | 2338 ft | 2 kts | 127° |
| 2026-04-22 18:41 | -32.82827 | -68.79707 | 2338 ft | 2 kts | 164° |
| 2026-04-22 18:41 | -32.82813 | -68.79707 | 2337 ft | 2 kts | 187° |
| 2026-04-22 18:42 | -32.82806 | -68.79707 | 2337 ft | 0 kts | 179° |
| 2026-04-22 18:43 | -32.82830 | -68.79703 | 2338 ft | 10 kts | 166° |
| 2026-04-22 18:43 | -32.82891 | -68.79652 | 2338 ft | 11 kts | 136° |
| 2026-04-22 18:43 | -32.82952 | -68.79583 | 2337 ft | 14 kts | 136° |
| 2026-04-22 18:44 | -32.83030 | -68.79506 | 2338 ft | 16 kts | 167° |
| 2026-04-22 18:44 | -32.83136 | -68.79505 | 2340 ft | 16 kts | 181° |
| 2026-04-22 18:44 | -32.83249 | -68.79502 | 2340 ft | 16 kts | 179° |
| 2026-04-22 18:44 | -32.83359 | -68.79503 | 2340 ft | 16 kts | 180° |
| 2026-04-22 18:45 | -32.83472 | -68.79504 | 2340 ft | 17 kts | 182° |
| 2026-04-22 18:45 | -32.83587 | -68.79513 | 2340 ft | 17 kts | 183° |
| 2026-04-22 18:45 | -32.83705 | -68.79514 | 2341 ft | 17 kts | 181° |
| 2026-04-22 18:45 | -32.83828 | -68.79516 | 2341 ft | 17 kts | 179° |
| 2026-04-22 18:46 | -32.83953 | -68.79512 | 2341 ft | 18 kts | 178° |
| 2026-04-22 18:46 | -32.84071 | -68.79485 | 2340 ft | 19 kts | 162° |
| 2026-04-22 18:46 | -32.84196 | -68.79436 | 2340 ft | 19 kts | 162° |
| 2026-04-22 18:46 | -32.84311 | -68.79356 | 2337 ft | 16 kts | 94° |
| 2026-04-22 18:47 | -32.84223 | -68.79319 | 2339 ft | 23 kts | 3° |
| 2026-04-22 18:47 | -32.83799 | -68.79304 | 2341 ft | 107 kts | 2° |
| 2026-04-22 18:47 | -32.82841 | -68.79290 | 2569 ft | 157 kts | 4° |
| 2026-04-22 18:47 | -32.81759 | -68.79272 | 3294 ft | 163 kts | 3° |
| 2026-04-22 18:48 | -32.80656 | -68.79254 | 4137 ft | 168 kts | 3° |
| 2026-04-22 18:48 | -32.79508 | -68.79240 | 4771 ft | 173 kts | 3° |
| 2026-04-22 18:48 | -32.78276 | -68.79218 | 5207 ft | 189 kts | 2° |
| 2026-04-22 18:48 | -32.76912 | -68.79035 | 5642 ft | 203 kts | 24° |
| 2026-04-22 18:49 | -32.75842 | -68.77920 | 6053 ft | 215 kts | 65° |
| 2026-04-22 18:49 | -32.75437 | -68.76243 | 6443 ft | 233 kts | 81° |
| 2026-04-22 18:49 | -32.75102 | -68.74235 | 6973 ft | 253 kts | 80° |
| 2026-04-22 18:49 | -32.74732 | -68.72150 | 7577 ft | 267 kts | 79° |
| 2026-04-22 18:50 | -32.74348 | -68.70110 | 8343 ft | 272 kts | 79° |
| 2026-04-22 18:50 | -32.73958 | -68.68082 | 9115 ft | 276 kts | 78° |
| 2026-04-22 18:50 | -32.73625 | -68.66361 | 9738 ft | 280 kts | 78° |
| 2026-04-22 18:50 | -32.73293 | -68.64307 | 10446 ft | 284 kts | 88° |
| 2026-04-22 18:51 | -32.73573 | -68.62133 | 11169 ft | 286 kts | 114° |
| 2026-04-22 18:51 | -32.74630 | -68.60179 | 11773 ft | 296 kts | 131° |
| 2026-04-22 18:51 | -32.77590 | -68.56265 | 12725 ft | 328 kts | 133° |
| 2026-04-22 18:52 | -32.79137 | -68.54214 | 13420 ft | 335 kts | 133° |
| 2026-04-22 18:52 | -32.80685 | -68.52136 | 14065 ft | 343 kts | 133° |
| 2026-04-22 18:52 | -32.82274 | -68.49985 | 14703 ft | 350 kts | 133° |
| 2026-04-22 18:52 | -32.83876 | -68.47800 | 15407 ft | 354 kts | 133° |
| 2026-04-22 18:53 | -32.85479 | -68.45605 | 16064 ft | 360 kts | 133° |
| 2026-04-22 18:53 | -32.87083 | -68.43404 | 16708 ft | 365 kts | 133° |
| 2026-04-22 18:53 | -32.88696 | -68.41188 | 17355 ft | 369 kts | 133° |
| 2026-04-22 18:53 | -32.90326 | -68.38949 | 17972 ft | 374 kts | 133° |
| 2026-04-22 18:54 | -32.91942 | -68.36726 | 18582 ft | 378 kts | 133° |
| 2026-04-22 18:54 | -32.93650 | -68.34371 | 19271 ft | 380 kts | 133° |
| 2026-04-22 18:54 | -32.95317 | -68.32065 | 19836 ft | 385 kts | 133° |
| 2026-04-22 18:54 | -32.97067 | -68.29635 | 20404 ft | 390 kts | 133° |
| 2026-04-22 18:55 | -32.98828 | -68.27196 | 20943 ft | 395 kts | 133° |
| 2026-04-22 18:55 | -33.00636 | -68.24696 | 21503 ft | 400 kts | 133° |
| 2026-04-22 18:55 | -33.02480 | -68.22147 | 22052 ft | 404 kts | 134° |
| 2026-04-22 18:55 | -33.04246 | -68.19704 | 22573 ft | 408 kts | 133° |
| 2026-04-22 18:56 | -33.06004 | -68.17271 | 23073 ft | 413 kts | 134° |
| 2026-04-22 18:56 | -33.07872 | -68.14686 | 23583 ft | 418 kts | 134° |
| 2026-04-22 18:56 | -33.09732 | -68.12112 | 24091 ft | 422 kts | 133° |
| 2026-04-22 18:56 | -33.11574 | -68.09568 | 24575 ft | 426 kts | 134° |
| 2026-04-22 18:57 | -33.13429 | -68.07014 | 25083 ft | 429 kts | 133° |
| 2026-04-22 18:57 | -33.16916 | -68.02187 | 25973 ft | 437 kts | 133° |
| 2026-04-22 18:57 | -33.18914 | -67.99410 | 26461 ft | 441 kts | 134° |
| 2026-04-22 18:58 | -33.20875 | -67.96677 | 26969 ft | 444 kts | 133° |
| 2026-04-22 18:58 | -33.22890 | -67.93869 | 27404 ft | 449 kts | 133° |
| 2026-04-22 18:58 | -33.24906 | -67.91053 | 27816 ft | 454 kts | 133° |
| 2026-04-22 18:58 | -33.26847 | -67.88347 | 28221 ft | 458 kts | 133° |
| 2026-04-22 18:59 | -33.28662 | -67.85648 | 28656 ft | 462 kts | 129° |